sensor_id;sensor_type;location;lat;lon;timestamp;P1;durP1;ratioP1;P2;durP2;ratioP2
66893;SDS011;53801;55.786;49.142;2023-05-19T00:05:42;13.57;;;5.33;;
66893;SDS011;53801;55.786;49.142;2023-05-19T00:08:10;11.52;;;4.65;;
66893;SDS011;53801;55.786;49.142;2023-05-19T00:10:36;11.35;;;4.55;;
66893;SDS011;53801;55.786;49.142;2023-05-19T00:15:50;10.03;;;4.50;;
66893;SDS011;53801;55.786;49.142;2023-05-19T00:18:16;17.38;;;4.45;;
66893;SDS011;53801;55.786;49.142;2023-05-19T00:20:41;12.10;;;4.57;;
66893;SDS011;53801;55.786;49.142;2023-05-19T00:25:42;12.10;;;4.30;;
66893;SDS011;53801;55.786;49.142;2023-05-19T00:28:07;11.23;;;3.73;;
66893;SDS011;53801;55.786;49.142;2023-05-19T00:30:33;10.77;;;3.90;;
66893;SDS011;53801;55.786;49.142;2023-05-19T00:32:58;10.77;;;4.53;;
66893;SDS011;53801;55.786;49.142;2023-05-19T00:35:24;10.73;;;4.67;;
66893;SDS011;53801;55.786;49.142;2023-05-19T00:37:49;8.95;;;4.13;;
66893;SDS011;53801;55.786;49.142;2023-05-19T00:40:15;10.17;;;4.30;;
66893;SDS011;53801;55.786;49.142;2023-05-19T00:42:40;10.27;;;4.20;;
66893;SDS011;53801;55.786;49.142;2023-05-19T00:45:06;10.98;;;4.15;;
66893;SDS011;53801;55.786;49.142;2023-05-19T00:47:32;9.00;;;3.93;;
66893;SDS011;53801;55.786;49.142;2023-05-19T00:49:57;12.00;;;4.13;;
66893;SDS011;53801;55.786;49.142;2023-05-19T00:52:23;9.03;;;3.40;;
66893;SDS011;53801;55.786;49.142;2023-05-19T00:54:49;13.02;;;4.32;;
66893;SDS011;53801;55.786;49.142;2023-05-19T00:57:15;10.50;;;4.25;;
66893;SDS011;53801;55.786;49.142;2023-05-19T00:59:40;11.43;;;4.30;;
66893;SDS011;53801;55.786;49.142;2023-05-19T01:02:06;10.35;;;3.88;;
66893;SDS011;53801;55.786;49.142;2023-05-19T01:04:32;10.53;;;4.27;;
66893;SDS011;53801;55.786;49.142;2023-05-19T01:06:59;11.23;;;4.35;;
66893;SDS011;53801;55.786;49.142;2023-05-19T01:09:24;12.70;;;4.38;;
66893;SDS011;53801;55.786;49.142;2023-05-19T01:11:50;11.57;;;4.40;;
66893;SDS011;53801;55.786;49.142;2023-05-19T01:14:15;13.07;;;4.47;;
66893;SDS011;53801;55.786;49.142;2023-05-19T01:21:58;13.30;;;4.73;;
66893;SDS011;53801;55.786;49.142;2023-05-19T01:29:27;16.60;;;5.77;;
66893;SDS011;53801;55.786;49.142;2023-05-19T01:31:56;10.27;;;4.90;;
66893;SDS011;53801;55.786;49.142;2023-05-19T01:34:23;9.55;;;4.65;;
66893;SDS011;53801;55.786;49.142;2023-05-19T01:36:50;10.93;;;5.00;;
66893;SDS011;53801;55.786;49.142;2023-05-19T01:39:18;10.57;;;4.80;;
66893;SDS011;53801;55.786;49.142;2023-05-19T01:41:44;21.45;;;5.82;;
66893;SDS011;53801;55.786;49.142;2023-05-19T01:44:09;11.03;;;5.23;;
66893;SDS011;53801;55.786;49.142;2023-05-19T01:46:36;21.58;;;6.57;;
66893;SDS011;53801;55.786;49.142;2023-05-19T01:49:04;11.52;;;4.72;;
66893;SDS011;53801;55.786;49.142;2023-05-19T01:51:30;12.18;;;4.70;;
66893;SDS011;53801;55.786;49.142;2023-05-19T01:53:55;14.77;;;4.80;;
66893;SDS011;53801;55.786;49.142;2023-05-19T01:56:25;13.07;;;4.97;;
66893;SDS011;53801;55.786;49.142;2023-05-19T01:58:57;9.80;;;4.70;;
66893;SDS011;53801;55.786;49.142;2023-05-19T02:11:34;8.85;;;4.28;;
66893;SDS011;53801;55.786;49.142;2023-05-19T02:13:57;12.82;;;4.47;;
66893;SDS011;53801;55.786;49.142;2023-05-19T02:16:27;11.45;;;4.63;;
66893;SDS011;53801;55.786;49.142;2023-05-19T02:18:52;13.38;;;5.47;;
66893;SDS011;53801;55.786;49.142;2023-05-19T02:21:18;9.57;;;3.93;;
66893;SDS011;53801;55.786;49.142;2023-05-19T02:23:43;8.40;;;4.47;;
66893;SDS011;53801;55.786;49.142;2023-05-19T02:26:09;11.00;;;4.35;;
66893;SDS011;53801;55.786;49.142;2023-05-19T02:28:34;18.77;;;4.60;;
66893;SDS011;53801;55.786;49.142;2023-05-19T02:31:01;13.95;;;4.68;;
66893;SDS011;53801;55.786;49.142;2023-05-19T02:33:26;14.20;;;4.70;;
66893;SDS011;53801;55.786;49.142;2023-05-19T02:35:55;18.88;;;4.82;;
66893;SDS011;53801;55.786;49.142;2023-05-19T02:38:20;16.42;;;4.90;;
66893;SDS011;53801;55.786;49.142;2023-05-19T02:40:46;15.65;;;4.65;;
66893;SDS011;53801;55.786;49.142;2023-05-19T02:43:11;13.18;;;5.75;;
66893;SDS011;53801;55.786;49.142;2023-05-19T02:45:37;16.63;;;4.83;;
66893;SDS011;53801;55.786;49.142;2023-05-19T02:48:02;14.40;;;4.50;;
66893;SDS011;53801;55.786;49.142;2023-05-19T02:50:28;12.77;;;5.00;;
66893;SDS011;53801;55.786;49.142;2023-05-19T02:52:53;16.35;;;4.35;;
66893;SDS011;53801;55.786;49.142;2023-05-19T02:55:18;13.50;;;5.40;;
66893;SDS011;53801;55.786;49.142;2023-05-19T02:57:44;13.97;;;4.97;;
66893;SDS011;53801;55.786;49.142;2023-05-19T03:00:09;14.87;;;5.53;;
66893;SDS011;53801;55.786;49.142;2023-05-19T03:02:35;14.98;;;6.68;;
66893;SDS011;53801;55.786;49.142;2023-05-19T03:05:00;15.80;;;6.15;;
66893;SDS011;53801;55.786;49.142;2023-05-19T03:07:29;17.93;;;6.23;;
66893;SDS011;53801;55.786;49.142;2023-05-19T03:09:55;14.55;;;5.15;;
66893;SDS011;53801;55.786;49.142;2023-05-19T03:12:20;15.70;;;3.77;;
66893;SDS011;53801;55.786;49.142;2023-05-19T03:14:45;13.17;;;3.30;;
66893;SDS011;53801;55.786;49.142;2023-05-19T03:17:11;9.35;;;2.70;;
66893;SDS011;53801;55.786;49.142;2023-05-19T03:19:37;11.00;;;3.17;;
66893;SDS011;53801;55.786;49.142;2023-05-19T03:22:02;6.67;;;2.60;;
66893;SDS011;53801;55.786;49.142;2023-05-19T03:24:29;14.07;;;3.78;;
66893;SDS011;53801;55.786;49.142;2023-05-19T03:26:54;11.63;;;3.20;;
66893;SDS011;53801;55.786;49.142;2023-05-19T03:29:20;11.50;;;3.40;;
66893;SDS011;53801;55.786;49.142;2023-05-19T03:31:45;6.87;;;3.03;;
66893;SDS011;53801;55.786;49.142;2023-05-19T03:34:10;11.40;;;2.60;;
66893;SDS011;53801;55.786;49.142;2023-05-19T03:36:36;11.77;;;3.17;;
66893;SDS011;53801;55.786;49.142;2023-05-19T03:39:04;10.15;;;3.03;;
66893;SDS011;53801;55.786;49.142;2023-05-19T03:41:30;10.38;;;3.13;;
66893;SDS011;53801;55.786;49.142;2023-05-19T03:43:55;10.40;;;3.03;;
66893;SDS011;53801;55.786;49.142;2023-05-19T03:46:20;7.57;;;3.23;;
66893;SDS011;53801;55.786;49.142;2023-05-19T03:48:46;17.15;;;3.10;;
66893;SDS011;53801;55.786;49.142;2023-05-19T03:51:11;14.93;;;3.80;;
66893;SDS011;53801;55.786;49.142;2023-05-19T03:53:37;5.47;;;2.87;;
66893;SDS011;53801;55.786;49.142;2023-05-19T03:56:05;17.08;;;3.38;;
66893;SDS011;53801;55.786;49.142;2023-05-19T03:58:31;7.10;;;2.95;;
66893;SDS011;53801;55.786;49.142;2023-05-19T04:00:57;8.13;;;3.13;;
66893;SDS011;53801;55.786;49.142;2023-05-19T04:03:22;8.40;;;3.00;;
66893;SDS011;53801;55.786;49.142;2023-05-19T04:05:50;8.18;;;3.05;;
66893;SDS011;53801;55.786;49.142;2023-05-19T04:08:15;11.77;;;3.30;;
66893;SDS011;53801;55.786;49.142;2023-05-19T04:10:41;8.10;;;3.20;;
66893;SDS011;53801;55.786;49.142;2023-05-19T04:13:06;8.07;;;3.30;;
66893;SDS011;53801;55.786;49.142;2023-05-19T04:15:31;10.90;;;3.73;;
66893;SDS011;53801;55.786;49.142;2023-05-19T04:17:57;10.50;;;4.07;;
66893;SDS011;53801;55.786;49.142;2023-05-19T04:20:22;10.23;;;4.17;;
66893;SDS011;53801;55.786;49.142;2023-05-19T04:22:47;15.32;;;4.30;;
66893;SDS011;53801;55.786;49.142;2023-05-19T04:25:13;10.88;;;5.88;;
66893;SDS011;53801;55.786;49.142;2023-05-19T04:27:38;12.83;;;6.03;;
66893;SDS011;53801;55.786;49.142;2023-05-19T04:30:04;10.27;;;4.10;;
66893;SDS011;53801;55.786;49.142;2023-05-19T04:32:31;10.07;;;4.00;;
66893;SDS011;53801;55.786;49.142;2023-05-19T04:34:57;10.13;;;4.27;;
66893;SDS011;53801;55.786;49.142;2023-05-19T04:37:23;15.02;;;4.63;;
66893;SDS011;53801;55.786;49.142;2023-05-19T04:39:50;11.88;;;4.70;;
66893;SDS011;53801;55.786;49.142;2023-05-19T04:42:16;10.65;;;4.57;;
66893;SDS011;53801;55.786;49.142;2023-05-19T04:44:43;9.23;;;5.03;;
66893;SDS011;53801;55.786;49.142;2023-05-19T04:47:09;13.68;;;5.65;;
66893;SDS011;53801;55.786;49.142;2023-05-19T04:49:35;17.93;;;5.50;;
66893;SDS011;53801;55.786;49.142;2023-05-19T04:52:05;14.43;;;5.25;;
66893;SDS011;53801;55.786;49.142;2023-05-19T04:54:31;14.52;;;5.50;;
66893;SDS011;53801;55.786;49.142;2023-05-19T04:56:56;12.40;;;5.20;;
66893;SDS011;53801;55.786;49.142;2023-05-19T04:59:22;14.87;;;5.83;;
66893;SDS011;53801;55.786;49.142;2023-05-19T05:01:47;9.75;;;5.20;;
66893;SDS011;53801;55.786;49.142;2023-05-19T05:04:13;16.50;;;5.60;;
66893;SDS011;53801;55.786;49.142;2023-05-19T05:06:38;13.93;;;5.37;;
66893;SDS011;53801;55.786;49.142;2023-05-19T05:09:04;10.60;;;5.75;;
66893;SDS011;53801;55.786;49.142;2023-05-19T05:11:30;21.23;;;6.40;;
66893;SDS011;53801;55.786;49.142;2023-05-19T05:13:55;11.27;;;5.55;;
66893;SDS011;53801;55.786;49.142;2023-05-19T05:16:33;14.80;;;6.13;;
66893;SDS011;53801;55.786;49.142;2023-05-19T05:19:10;13.30;;;5.63;;
66893;SDS011;53801;55.786;49.142;2023-05-19T05:21:42;18.88;;;6.72;;
66893;SDS011;53801;55.786;49.142;2023-05-19T05:24:08;18.92;;;6.57;;
66893;SDS011;53801;55.786;49.142;2023-05-19T05:26:33;16.37;;;6.00;;
66893;SDS011;53801;55.786;49.142;2023-05-19T05:28:59;8.65;;;5.70;;
66893;SDS011;53801;55.786;49.142;2023-05-19T05:31:25;12.40;;;6.05;;
66893;SDS011;53801;55.786;49.142;2023-05-19T05:33:51;13.00;;;6.50;;
66893;SDS011;53801;55.786;49.142;2023-05-19T05:36:16;19.97;;;6.43;;
66893;SDS011;53801;55.786;49.142;2023-05-19T05:38:42;10.25;;;6.90;;
66893;SDS011;53801;55.786;49.142;2023-05-19T05:41:07;14.13;;;6.60;;
66893;SDS011;53801;55.786;49.142;2023-05-19T05:43:32;11.90;;;6.10;;
66893;SDS011;53801;55.786;49.142;2023-05-19T05:45:58;10.63;;;5.73;;
66893;SDS011;53801;55.786;49.142;2023-05-19T05:48:23;12.52;;;6.00;;
66893;SDS011;53801;55.786;49.142;2023-05-19T05:50:49;12.93;;;5.83;;
66893;SDS011;53801;55.786;49.142;2023-05-19T05:53:18;10.15;;;5.78;;
66893;SDS011;53801;55.786;49.142;2023-05-19T05:55:47;16.50;;;6.53;;
66893;SDS011;53801;55.786;49.142;2023-05-19T05:58:12;7.03;;;5.82;;
66893;SDS011;53801;55.786;49.142;2023-05-19T06:00:39;13.77;;;6.25;;
66893;SDS011;53801;55.786;49.142;2023-05-19T06:03:07;10.98;;;5.57;;
66893;SDS011;53801;55.786;49.142;2023-05-19T06:05:34;10.20;;;6.63;;
66893;SDS011;53801;55.786;49.142;2023-05-19T06:08:00;11.87;;;6.00;;
66893;SDS011;53801;55.786;49.142;2023-05-19T06:10:26;6.75;;;5.85;;
66893;SDS011;53801;55.786;49.142;2023-05-19T06:12:52;14.07;;;6.57;;
66893;SDS011;53801;55.786;49.142;2023-05-19T06:15:17;9.27;;;7.13;;
66893;SDS011;53801;55.786;49.142;2023-05-19T06:17:43;8.47;;;6.03;;
66893;SDS011;53801;55.786;49.142;2023-05-19T06:20:08;9.23;;;5.90;;
66893;SDS011;53801;55.786;49.142;2023-05-19T06:22:34;14.65;;;6.63;;
66893;SDS011;53801;55.786;49.142;2023-05-19T06:24:59;12.53;;;5.43;;
66893;SDS011;53801;55.786;49.142;2023-05-19T06:27:25;6.93;;;6.22;;
66893;SDS011;53801;55.786;49.142;2023-05-19T06:29:50;9.82;;;6.18;;
66893;SDS011;53801;55.786;49.142;2023-05-19T06:32:16;10.50;;;6.70;;
66893;SDS011;53801;55.786;49.142;2023-05-19T06:34:41;10.30;;;6.13;;
66893;SDS011;53801;55.786;49.142;2023-05-19T06:37:06;12.53;;;7.67;;
66893;SDS011;53801;55.786;49.142;2023-05-19T06:39:32;10.13;;;7.40;;
66893;SDS011;53801;55.786;49.142;2023-05-19T06:41:57;11.30;;;7.78;;
66893;SDS011;53801;55.786;49.142;2023-05-19T06:44:23;9.83;;;7.27;;
66893;SDS011;53801;55.786;49.142;2023-05-19T06:46:48;9.53;;;6.73;;
66893;SDS011;53801;55.786;49.142;2023-05-19T06:49:14;10.10;;;5.50;;
66893;SDS011;53801;55.786;49.142;2023-05-19T06:51:39;9.95;;;6.75;;
66893;SDS011;53801;55.786;49.142;2023-05-19T06:54:08;8.38;;;6.63;;
66893;SDS011;53801;55.786;49.142;2023-05-19T06:56:39;17.45;;;7.03;;
66893;SDS011;53801;55.786;49.142;2023-05-19T06:59:05;10.85;;;7.50;;
66893;SDS011;53801;55.786;49.142;2023-05-19T07:01:30;12.13;;;7.93;;
66893;SDS011;53801;55.786;49.142;2023-05-19T07:03:55;11.80;;;6.67;;
66893;SDS011;53801;55.786;49.142;2023-05-19T07:06:21;10.80;;;6.32;;
66893;SDS011;53801;55.786;49.142;2023-05-19T07:08:50;11.07;;;6.35;;
66893;SDS011;53801;55.786;49.142;2023-05-19T07:14:04;9.48;;;6.13;;
66893;SDS011;53801;55.786;49.142;2023-05-19T07:16:29;8.23;;;6.17;;
66893;SDS011;53801;55.786;49.142;2023-05-19T07:18:55;10.27;;;7.43;;
66893;SDS011;53801;55.786;49.142;2023-05-19T07:21:20;9.63;;;6.60;;
66893;SDS011;53801;55.786;49.142;2023-05-19T07:23:46;9.65;;;6.60;;
66893;SDS011;53801;55.786;49.142;2023-05-19T07:26:12;11.50;;;6.40;;
66893;SDS011;53801;55.786;49.142;2023-05-19T07:28:37;12.77;;;6.40;;
66893;SDS011;53801;55.786;49.142;2023-05-19T07:31:02;8.37;;;5.53;;
66893;SDS011;53801;55.786;49.142;2023-05-19T07:33:28;10.55;;;5.80;;
66893;SDS011;53801;55.786;49.142;2023-05-19T07:35:53;6.40;;;5.80;;
66893;SDS011;53801;55.786;49.142;2023-05-19T07:38:18;9.27;;;5.87;;
66893;SDS011;53801;55.786;49.142;2023-05-19T07:40:44;7.73;;;6.00;;
66893;SDS011;53801;55.786;49.142;2023-05-19T07:43:09;9.48;;;6.85;;
66893;SDS011;53801;55.786;49.142;2023-05-19T07:45:36;9.07;;;6.83;;
66893;SDS011;53801;55.786;49.142;2023-05-19T07:48:01;12.68;;;6.95;;
66893;SDS011;53801;55.786;49.142;2023-05-19T07:50:27;12.43;;;6.23;;
66893;SDS011;53801;55.786;49.142;2023-05-19T07:52:52;8.25;;;6.47;;
66893;SDS011;53801;55.786;49.142;2023-05-19T07:55:18;12.30;;;6.57;;
66893;SDS011;53801;55.786;49.142;2023-05-19T07:57:44;25.98;;;12.90;;
66893;SDS011;53801;55.786;49.142;2023-05-19T08:00:09;7.72;;;6.82;;
66893;SDS011;53801;55.786;49.142;2023-05-19T08:02:36;8.40;;;7.10;;
66893;SDS011;53801;55.786;49.142;2023-05-19T08:05:01;8.00;;;6.03;;
66893;SDS011;53801;55.786;49.142;2023-05-19T08:07:29;9.32;;;6.53;;
66893;SDS011;53801;55.786;49.142;2023-05-19T08:09:54;10.80;;;6.30;;
66893;SDS011;53801;55.786;49.142;2023-05-19T08:12:20;11.93;;;6.60;;
66893;SDS011;53801;55.786;49.142;2023-05-19T08:14:45;9.67;;;6.07;;
66893;SDS011;53801;55.786;49.142;2023-05-19T08:17:11;7.23;;;6.53;;
66893;SDS011;53801;55.786;49.142;2023-05-19T08:19:36;10.90;;;6.85;;
66893;SDS011;53801;55.786;49.142;2023-05-19T08:22:01;8.97;;;6.37;;
66893;SDS011;53801;55.786;49.142;2023-05-19T08:24:27;9.63;;;6.82;;
66893;SDS011;53801;55.786;49.142;2023-05-19T08:26:54;11.13;;;6.65;;
66893;SDS011;53801;55.786;49.142;2023-05-19T08:29:19;8.55;;;6.40;;
66893;SDS011;53801;55.786;49.142;2023-05-19T08:31:45;11.50;;;7.28;;
66893;SDS011;53801;55.786;49.142;2023-05-19T08:34:10;13.40;;;7.10;;
66893;SDS011;53801;55.786;49.142;2023-05-19T08:36:36;10.17;;;6.80;;
66893;SDS011;53801;55.786;49.142;2023-05-19T08:39:02;10.85;;;7.45;;
66893;SDS011;53801;55.786;49.142;2023-05-19T08:41:27;8.50;;;7.03;;
66893;SDS011;53801;55.786;49.142;2023-05-19T08:43:53;14.10;;;7.00;;
66893;SDS011;53801;55.786;49.142;2023-05-19T08:46:18;14.57;;;7.10;;
66893;SDS011;53801;55.786;49.142;2023-05-19T08:48:45;11.65;;;7.72;;
66893;SDS011;53801;55.786;49.142;2023-05-19T08:53:47;7.57;;;6.55;;
66893;SDS011;53801;55.786;49.142;2023-05-19T08:56:15;9.73;;;7.27;;
66893;SDS011;53801;55.786;49.142;2023-05-19T08:58:42;8.07;;;6.07;;
66893;SDS011;53801;55.786;49.142;2023-05-19T09:01:09;7.18;;;5.95;;
66893;SDS011;53801;55.786;49.142;2023-05-19T09:03:35;15.35;;;7.22;;
66893;SDS011;53801;55.786;49.142;2023-05-19T09:06:06;13.20;;;7.25;;
66893;SDS011;53801;55.786;49.142;2023-05-19T09:08:36;14.20;;;6.73;;
66893;SDS011;53801;55.786;49.142;2023-05-19T09:11:02;15.23;;;6.43;;
66893;SDS011;53801;55.786;49.142;2023-05-19T09:13:27;8.57;;;7.03;;
66893;SDS011;53801;55.786;49.142;2023-05-19T09:15:53;12.40;;;7.23;;
66893;SDS011;53801;55.786;49.142;2023-05-19T09:18:20;12.73;;;7.15;;
66893;SDS011;53801;55.786;49.142;2023-05-19T09:20:45;10.00;;;6.33;;
66893;SDS011;53801;55.786;49.142;2023-05-19T09:23:15;9.27;;;6.15;;
66893;SDS011;53801;55.786;49.142;2023-05-19T09:28:12;11.27;;;7.45;;
66893;SDS011;53801;55.786;49.142;2023-05-19T09:30:37;8.65;;;6.63;;
66893;SDS011;53801;55.786;49.142;2023-05-19T09:33:03;12.50;;;7.37;;
66893;SDS011;53801;55.786;49.142;2023-05-19T09:35:33;9.52;;;6.57;;
66893;SDS011;53801;55.786;49.142;2023-05-19T09:37:58;9.75;;;8.75;;
66893;SDS011;53801;55.786;49.142;2023-05-19T09:40:28;9.45;;;6.35;;
66893;SDS011;53801;55.786;49.142;2023-05-19T09:42:53;9.52;;;6.45;;
66893;SDS011;53801;55.786;49.142;2023-05-19T09:45:21;8.40;;;6.97;;
66893;SDS011;53801;55.786;49.142;2023-05-19T09:47:46;12.30;;;7.15;;
66893;SDS011;53801;55.786;49.142;2023-05-19T09:50:12;10.20;;;7.05;;
66893;SDS011;53801;55.786;49.142;2023-05-19T09:52:39;9.63;;;7.45;;
66893;SDS011;53801;55.786;49.142;2023-05-19T09:55:07;12.77;;;7.05;;
66893;SDS011;53801;55.786;49.142;2023-05-19T09:57:33;14.98;;;6.97;;
66893;SDS011;53801;55.786;49.142;2023-05-19T10:00:03;13.82;;;6.57;;
66893;SDS011;53801;55.786;49.142;2023-05-19T10:02:35;10.30;;;6.35;;
66893;SDS011;53801;55.786;49.142;2023-05-19T10:05:01;8.40;;;7.00;;
66893;SDS011;53801;55.786;49.142;2023-05-19T10:07:27;9.57;;;7.73;;
66893;SDS011;53801;55.786;49.142;2023-05-19T10:09:53;6.90;;;6.20;;
66893;SDS011;53801;55.786;49.142;2023-05-19T10:12:20;10.30;;;5.78;;
66893;SDS011;53801;55.786;49.142;2023-05-19T10:14:46;7.63;;;4.43;;
66893;SDS011;53801;55.786;49.142;2023-05-19T10:17:11;10.50;;;6.03;;
66893;SDS011;53801;55.786;49.142;2023-05-19T10:19:37;10.18;;;5.00;;
66893;SDS011;53801;55.786;49.142;2023-05-19T10:22:04;7.05;;;4.82;;
66893;SDS011;53801;55.786;49.142;2023-05-19T10:27:06;7.07;;;4.00;;
66893;SDS011;53801;55.786;49.142;2023-05-19T10:40:20;13.68;;;3.72;;
66893;SDS011;53801;55.786;49.142;2023-05-19T10:45:16;4.63;;;3.10;;
66893;SDS011;53801;55.786;49.142;2023-05-19T10:47:42;7.55;;;3.72;;
66893;SDS011;53801;55.786;49.142;2023-05-19T10:50:09;9.93;;;3.50;;
66893;SDS011;53801;55.786;49.142;2023-05-19T10:52:38;6.95;;;3.63;;
66893;SDS011;53801;55.786;49.142;2023-05-19T10:55:06;9.52;;;3.63;;
66893;SDS011;53801;55.786;49.142;2023-05-19T10:57:32;6.35;;;3.50;;
66893;SDS011;53801;55.786;49.142;2023-05-19T10:59:58;8.20;;;3.10;;
66893;SDS011;53801;55.786;49.142;2023-05-19T11:02:36;12.13;;;3.70;;
66893;SDS011;53801;55.786;49.142;2023-05-19T11:05:12;7.90;;;4.00;;
66893;SDS011;53801;55.786;49.142;2023-05-19T11:07:42;6.18;;;3.40;;
66893;SDS011;53801;55.786;49.142;2023-05-19T11:10:08;10.50;;;3.60;;
66893;SDS011;53801;55.786;49.142;2023-05-19T11:12:41;10.60;;;3.92;;
66893;SDS011;53801;55.786;49.142;2023-05-19T11:15:10;8.95;;;3.83;;
66893;SDS011;53801;55.786;49.142;2023-05-19T11:17:36;7.60;;;3.80;;
66893;SDS011;53801;55.786;49.142;2023-05-19T11:20:02;12.98;;;3.92;;
66893;SDS011;53801;55.786;49.142;2023-05-19T11:22:29;22.10;;;4.67;;
66893;SDS011;53801;55.786;49.142;2023-05-19T11:24:58;9.73;;;3.67;;
66893;SDS011;53801;55.786;49.142;2023-05-19T11:27:27;8.50;;;3.45;;
66893;SDS011;53801;55.786;49.142;2023-05-19T11:29:55;11.98;;;3.67;;
66893;SDS011;53801;55.786;49.142;2023-05-19T11:32:21;4.28;;;2.90;;
66893;SDS011;53801;55.786;49.142;2023-05-19T11:34:49;5.82;;;3.67;;
66893;SDS011;53801;55.786;49.142;2023-05-19T11:37:15;5.90;;;2.90;;
66893;SDS011;53801;55.786;49.142;2023-05-19T11:39:41;6.23;;;3.67;;
66893;SDS011;53801;55.786;49.142;2023-05-19T11:42:08;7.95;;;3.70;;
66893;SDS011;53801;55.786;49.142;2023-05-19T11:44:35;11.05;;;3.63;;
66893;SDS011;53801;55.786;49.142;2023-05-19T11:47:00;7.23;;;3.23;;
66893;SDS011;53801;55.786;49.142;2023-05-19T11:49:27;8.37;;;3.47;;
66893;SDS011;53801;55.786;49.142;2023-05-19T11:51:53;8.70;;;3.15;;
66893;SDS011;53801;55.786;49.142;2023-05-19T11:54:19;9.68;;;3.45;;
66893;SDS011;53801;55.786;49.142;2023-05-19T11:56:44;5.85;;;3.20;;
66893;SDS011;53801;55.786;49.142;2023-05-19T11:59:10;9.67;;;3.50;;
66893;SDS011;53801;55.786;49.142;2023-05-19T12:01:35;9.10;;;3.23;;
66893;SDS011;53801;55.786;49.142;2023-05-19T12:04:01;7.97;;;3.30;;
66893;SDS011;53801;55.786;49.142;2023-05-19T12:06:29;6.53;;;3.40;;
66893;SDS011;53801;55.786;49.142;2023-05-19T12:08:55;6.03;;;3.15;;
66893;SDS011;53801;55.786;49.142;2023-05-19T12:11:21;6.10;;;3.40;;
66893;SDS011;53801;55.786;49.142;2023-05-19T12:14:02;9.35;;;3.50;;
66893;SDS011;53801;55.786;49.142;2023-05-19T12:16:33;8.15;;;3.88;;
66893;SDS011;53801;55.786;49.142;2023-05-19T12:19:00;8.35;;;3.08;;
66893;SDS011;53801;55.786;49.142;2023-05-19T12:21:25;11.25;;;3.35;;
66893;SDS011;53801;55.786;49.142;2023-05-19T12:23:51;9.13;;;3.10;;
66893;SDS011;53801;55.786;49.142;2023-05-19T12:26:19;5.97;;;3.05;;
66893;SDS011;53801;55.786;49.142;2023-05-19T12:28:49;6.78;;;3.15;;
66893;SDS011;53801;55.786;49.142;2023-05-19T12:31:16;9.60;;;3.40;;
66893;SDS011;53801;55.786;49.142;2023-05-19T12:33:51;9.73;;;3.17;;
66893;SDS011;53801;55.786;49.142;2023-05-19T12:36:17;8.43;;;3.40;;
66893;SDS011;53801;55.786;49.142;2023-05-19T12:38:43;8.52;;;3.50;;
66893;SDS011;53801;55.786;49.142;2023-05-19T12:41:11;8.57;;;3.47;;
66893;SDS011;53801;55.786;49.142;2023-05-19T12:43:36;6.18;;;3.40;;
66893;SDS011;53801;55.786;49.142;2023-05-19T12:46:11;5.57;;;3.60;;
66893;SDS011;53801;55.786;49.142;2023-05-19T12:48:42;5.57;;;2.80;;
66893;SDS011;53801;55.786;49.142;2023-05-19T12:51:08;9.30;;;3.38;;
66893;SDS011;53801;55.786;49.142;2023-05-19T12:53:35;6.97;;;3.33;;
66893;SDS011;53801;55.786;49.142;2023-05-19T12:56:00;7.47;;;2.47;;
66893;SDS011;53801;55.786;49.142;2023-05-19T12:58:26;7.82;;;3.03;;
66893;SDS011;53801;55.786;49.142;2023-05-19T13:00:51;6.90;;;3.30;;
66893;SDS011;53801;55.786;49.142;2023-05-19T13:03:20;4.65;;;3.00;;
66893;SDS011;53801;55.786;49.142;2023-05-19T13:05:47;5.80;;;2.67;;
66893;SDS011;53801;55.786;49.142;2023-05-19T13:08:17;9.75;;;2.42;;
66893;SDS011;53801;55.786;49.142;2023-05-19T13:10:52;7.13;;;2.15;;
66893;SDS011;53801;55.786;49.142;2023-05-19T13:13:17;12.00;;;3.03;;
66893;SDS011;53801;55.786;49.142;2023-05-19T13:16:03;6.72;;;2.50;;
66893;SDS011;53801;55.786;49.142;2023-05-19T13:18:29;12.93;;;2.33;;
66893;SDS011;53801;55.786;49.142;2023-05-19T13:20:56;8.13;;;2.42;;
66893;SDS011;53801;55.786;49.142;2023-05-19T13:23:22;10.93;;;2.67;;
66893;SDS011;53801;55.786;49.142;2023-05-19T13:25:50;7.30;;;2.50;;
66893;SDS011;53801;55.786;49.142;2023-05-19T13:28:16;6.38;;;2.92;;
66893;SDS011;53801;55.786;49.142;2023-05-19T13:30:43;10.43;;;2.70;;
66893;SDS011;53801;55.786;49.142;2023-05-19T13:33:09;9.93;;;2.60;;
66893;SDS011;53801;55.786;49.142;2023-05-19T13:35:36;15.38;;;3.20;;
66893;SDS011;53801;55.786;49.142;2023-05-19T13:38:03;9.02;;;2.80;;
66893;SDS011;53801;55.786;49.142;2023-05-19T13:40:28;11.27;;;2.78;;
66893;SDS011;53801;55.786;49.142;2023-05-19T13:42:57;8.23;;;2.88;;
66893;SDS011;53801;55.786;49.142;2023-05-19T13:45:22;6.80;;;2.53;;
66893;SDS011;53801;55.786;49.142;2023-05-19T13:47:48;9.43;;;3.00;;
66893;SDS011;53801;55.786;49.142;2023-05-19T13:50:13;8.47;;;2.27;;
66893;SDS011;53801;55.786;49.142;2023-05-19T13:52:38;7.97;;;2.88;;
66893;SDS011;53801;55.786;49.142;2023-05-19T13:55:05;7.65;;;2.50;;
66893;SDS011;53801;55.786;49.142;2023-05-19T13:57:30;9.75;;;2.40;;
66893;SDS011;53801;55.786;49.142;2023-05-19T13:59:56;6.07;;;2.40;;
66893;SDS011;53801;55.786;49.142;2023-05-19T14:02:21;7.63;;;2.60;;
66893;SDS011;53801;55.786;49.142;2023-05-19T14:04:47;11.00;;;2.57;;
66893;SDS011;53801;55.786;49.142;2023-05-19T14:07:13;11.38;;;2.70;;
66893;SDS011;53801;55.786;49.142;2023-05-19T14:09:40;7.68;;;3.28;;
66893;SDS011;53801;55.786;49.142;2023-05-19T14:12:06;8.23;;;3.13;;
66893;SDS011;53801;55.786;49.142;2023-05-19T14:14:31;10.85;;;3.25;;
66893;SDS011;53801;55.786;49.142;2023-05-19T14:16:57;8.83;;;3.10;;
66893;SDS011;53801;55.786;49.142;2023-05-19T14:19:28;6.88;;;2.60;;
66893;SDS011;53801;55.786;49.142;2023-05-19T14:21:57;7.28;;;2.75;;
66893;SDS011;53801;55.786;49.142;2023-05-19T14:24:26;6.85;;;2.50;;
66893;SDS011;53801;55.786;49.142;2023-05-19T14:26:51;8.10;;;3.03;;
66893;SDS011;53801;55.786;49.142;2023-05-19T14:29:18;7.37;;;2.50;;
66893;SDS011;53801;55.786;49.142;2023-05-19T14:31:43;6.68;;;2.67;;
66893;SDS011;53801;55.786;49.142;2023-05-19T14:34:08;6.20;;;2.70;;
66893;SDS011;53801;55.786;49.142;2023-05-19T14:36:34;8.07;;;2.90;;
66893;SDS011;53801;55.786;49.142;2023-05-19T14:39:00;7.47;;;2.95;;
66893;SDS011;53801;55.786;49.142;2023-05-19T14:41:26;6.27;;;2.80;;
66893;SDS011;53801;55.786;49.142;2023-05-19T14:43:51;9.63;;;2.72;;
66893;SDS011;53801;55.786;49.142;2023-05-19T14:46:16;12.97;;;3.27;;
66893;SDS011;53801;55.786;49.142;2023-05-19T14:48:42;9.60;;;2.80;;
66893;SDS011;53801;55.786;49.142;2023-05-19T14:51:07;7.83;;;2.60;;
66893;SDS011;53801;55.786;49.142;2023-05-19T14:53:33;8.70;;;2.75;;
66893;SDS011;53801;55.786;49.142;2023-05-19T14:55:58;8.90;;;2.90;;
66893;SDS011;53801;55.786;49.142;2023-05-19T14:58:24;10.00;;;2.93;;
66893;SDS011;53801;55.786;49.142;2023-05-19T15:00:49;7.87;;;2.80;;
66893;SDS011;53801;55.786;49.142;2023-05-19T15:03:16;10.30;;;3.00;;
66893;SDS011;53801;55.786;49.142;2023-05-19T15:05:41;5.75;;;2.67;;
66893;SDS011;53801;55.786;49.142;2023-05-19T15:08:07;8.97;;;3.30;;
66893;SDS011;53801;55.786;49.142;2023-05-19T15:10:32;7.80;;;2.90;;
66893;SDS011;53801;55.786;49.142;2023-05-19T15:12:58;7.47;;;2.75;;
66893;SDS011;53801;55.786;49.142;2023-05-19T15:15:24;10.17;;;2.70;;
66893;SDS011;53801;55.786;49.142;2023-05-19T15:17:50;11.88;;;2.60;;